createdAt,value
2022-08-18T00:02:07.141Z,18.37
2022-08-18T00:05:13.649Z,17.50
2022-08-18T00:08:18.839Z,17.77
2022-08-18T00:11:23.774Z,18.70
2022-08-18T00:14:28.928Z,18.50
2022-08-18T00:17:33.860Z,18.23
2022-08-18T00:20:37.493Z,19.83
2022-08-18T00:23:41.360Z,21.27
2022-08-18T00:26:48.636Z,20.83
2022-08-18T00:29:57.224Z,22.13
2022-08-18T00:33:02.156Z,20.60
2022-08-18T00:36:06.447Z,20.37
2022-08-18T00:39:10.155Z,20.27
2022-08-18T00:42:28.840Z,19.13
2022-08-18T00:45:39.413Z,19.00
2022-08-18T00:48:48.406Z,18.50
2022-08-18T00:51:53.511Z,19.03
2022-08-18T00:54:58.010Z,19.13
2022-08-18T00:58:10.371Z,19.83
2022-08-18T01:01:18.759Z,19.80
2022-08-18T01:04:29.277Z,22.03
2022-08-18T01:07:40.614Z,24.43
2022-08-18T01:10:45.122Z,23.67
2022-08-18T01:13:48.973Z,24.57
2022-08-18T01:17:11.402Z,24.57
2022-08-18T01:20:41.536Z,24.13
2022-08-18T01:23:48.773Z,23.67
2022-08-18T01:26:51.512Z,23.53
2022-08-18T01:29:55.133Z,25.67
2022-08-18T01:33:00.263Z,24.20
2022-08-18T01:36:14.624Z,23.63
2022-08-18T01:41:21.022Z,23.33
2022-08-18T01:42:46.630Z,23.07
2022-08-18T01:45:50.393Z,23.03
2022-08-18T01:48:54.503Z,23.93
2022-08-18T01:51:58.197Z,24.27
2022-08-18T01:55:04.883Z,25.33
2022-08-18T01:58:09.278Z,27.07
2022-08-18T02:01:13.333Z,25.67
2022-08-18T02:04:36.512Z,28.40
2022-08-18T02:07:41.292Z,28.40
2022-08-18T02:10:47.680Z,32.00
2022-08-18T02:13:51.357Z,41.07
2022-08-18T02:17:01.017Z,42.87
2022-08-18T02:20:08.694Z,49.63
2022-08-18T02:23:12.926Z,48.37
2022-08-18T02:26:19.770Z,54.80
2022-08-18T02:29:23.541Z,54.37
2022-08-18T02:32:27.270Z,64.27
2022-08-18T02:35:33.839Z,67.17
2022-08-18T02:38:37.663Z,61.07
2022-08-18T02:41:46.192Z,64.90
2022-08-18T02:44:50.087Z,69.63
2022-08-18T02:47:55.155Z,76.23
2022-08-18T02:51:03.757Z,84.07
2022-08-18T02:54:09.412Z,79.90
2022-08-18T02:57:14.950Z,73.73
2022-08-18T03:00:20.825Z,72.00
2022-08-18T03:03:24.427Z,72.50
2022-08-18T03:06:30.490Z,70.03
2022-08-18T03:09:35.894Z,57.73
2022-08-18T03:12:43.250Z,60.97
2022-08-18T03:15:47.115Z,56.70
2022-08-18T03:18:50.806Z,57.73
2022-08-18T03:21:58.051Z,59.40
2022-08-18T03:25:01.992Z,54.07
2022-08-18T03:28:07.830Z,56.47
2022-08-18T03:31:14.287Z,52.57
2022-08-18T03:34:21.166Z,53.07
2022-08-18T03:37:24.864Z,48.07
2022-08-18T03:40:28.866Z,43.07
2022-08-18T03:43:50.601Z,46.10
2022-08-18T03:46:55.258Z,47.67
2022-08-18T03:49:59.512Z,42.00
2022-08-18T03:53:05.332Z,41.93
2022-08-18T03:56:17.622Z,44.80
2022-08-18T03:59:27.074Z,41.90
2022-08-18T04:02:30.727Z,42.73
2022-08-18T04:05:35.826Z,41.10
2022-08-18T04:08:39.440Z,41.83
2022-08-18T04:11:45.133Z,39.07
2022-08-18T04:14:51.910Z,39.90
2022-08-18T04:18:03.503Z,36.57
2022-08-18T04:21:13.729Z,37.30
2022-08-18T04:24:17.660Z,35.30
2022-08-18T04:27:23.604Z,33.90
2022-08-18T04:30:29.174Z,35.23
2022-08-18T04:33:33.000Z,35.93
2022-08-18T04:36:38.466Z,36.93
2022-08-18T04:39:42.533Z,33.77
2022-08-18T04:42:47.146Z,35.43
2022-08-18T04:45:52.226Z,34.50
2022-08-18T04:48:59.636Z,32.83
2022-08-18T04:52:40.002Z,34.30
2022-08-18T04:55:49.876Z,29.77
2022-08-18T04:58:56.165Z,31.63
2022-08-18T05:02:05.807Z,34.57
2022-08-18T05:05:11.260Z,30.23
2022-08-18T05:08:15.099Z,36.07
2022-08-18T05:11:18.882Z,28.10
2022-08-18T05:14:22.755Z,32.33
2022-08-18T05:17:30.501Z,37.63
2022-08-18T05:20:35.140Z,42.20
2022-08-18T05:23:38.845Z,40.97
2022-08-18T05:26:42.582Z,40.53
2022-08-18T05:29:46.400Z,40.90
2022-08-18T05:32:51.524Z,44.40
2022-08-18T05:36:05.067Z,37.53
2022-08-18T05:39:22.786Z,38.07
2022-08-18T05:42:30.551Z,39.77
2022-08-18T05:45:35.555Z,42.23
2022-08-18T05:48:43.699Z,43.03
2022-08-18T05:51:51.137Z,41.57
2022-08-18T05:55:18.406Z,37.43
2022-08-18T05:58:33.341Z,34.20
2022-08-18T06:01:46.040Z,35.97
2022-08-18T06:04:55.977Z,34.13
2022-08-18T06:08:05.172Z,29.03
2022-08-18T06:11:22.066Z,32.90
2022-08-18T06:14:26.625Z,29.60
2022-08-18T06:18:02.649Z,30.50
2022-08-18T06:21:39.441Z,29.43
2022-08-18T06:24:57.937Z,32.33
2022-08-18T06:28:09.475Z,31.20
2022-08-18T06:31:27.359Z,33.20
2022-08-18T06:34:46.466Z,31.80
2022-08-18T06:38:23.543Z,34.57
2022-08-18T06:41:43.084Z,35.40
2022-08-18T06:44:54.119Z,38.33
2022-08-18T06:48:15.199Z,40.13
2022-08-18T06:51:23.089Z,41.13
2022-08-18T06:54:31.149Z,36.37
2022-08-18T06:57:38.946Z,43.80
2022-08-18T07:00:57.410Z,37.87
2022-08-18T07:04:01.190Z,40.00
2022-08-18T07:07:22.194Z,40.07
2022-08-18T07:10:39.899Z,34.53
2022-08-18T07:13:47.956Z,31.13
2022-08-18T07:17:11.538Z,25.63
2022-08-18T07:20:25.369Z,26.53
2022-08-18T07:23:38.343Z,27.17
2022-08-18T07:27:03.844Z,26.30
2022-08-18T07:30:15.728Z,28.83
2022-08-18T07:33:27.067Z,27.00
2022-08-18T07:36:48.666Z,31.00
2022-08-18T07:40:01.069Z,34.73
2022-08-18T07:43:18.773Z,31.73
2022-08-18T07:46:33.108Z,30.80
2022-08-18T07:49:46.043Z,33.93
2022-08-18T07:53:18.198Z,35.63
2022-08-18T07:56:38.995Z,31.47
2022-08-18T07:59:52.477Z,35.37
2022-08-18T08:03:21.779Z,33.60
2022-08-18T08:06:36.003Z,35.47
2022-08-18T08:09:54.517Z,43.27
2022-08-18T08:13:31.269Z,34.90
2022-08-18T08:16:50.893Z,32.17
2022-08-18T08:20:15.800Z,33.23
2022-08-18T08:23:31.764Z,27.93
2022-08-18T08:26:55.252Z,26.97
2022-08-18T08:30:07.068Z,32.87
2022-08-18T08:33:24.490Z,28.83
2022-08-18T08:36:34.786Z,29.63
2022-08-18T08:39:46.356Z,30.73
2022-08-18T08:42:57.515Z,23.63
2022-08-18T08:46:12.183Z,25.10
2022-08-18T08:49:31.986Z,23.90
2022-08-18T08:52:44.150Z,24.23
2022-08-18T08:55:52.619Z,21.43
2022-08-18T08:59:04.827Z,19.30
2022-08-18T09:02:47.754Z,19.60
2022-08-18T09:06:07.906Z,20.73
2022-08-18T09:09:38.751Z,23.13
2022-08-18T09:13:09.175Z,20.03
2022-08-18T09:16:36.695Z,20.57
2022-08-18T09:20:20.683Z,20.90
2022-08-18T09:23:33.678Z,17.97
2022-08-18T09:26:47.602Z,20.73
2022-08-18T09:29:57.385Z,17.43
2022-08-18T09:33:20.683Z,22.57
2022-08-18T09:36:45.491Z,25.50
2022-08-18T09:40:29.634Z,19.43
2022-08-18T09:44:17.765Z,17.47
2022-08-18T09:48:20.656Z,18.40
2022-08-18T09:51:41.251Z,18.70
2022-08-18T09:54:59.829Z,19.10
2022-08-18T09:58:20.428Z,16.20
2022-08-18T10:01:42.445Z,18.07
2022-08-18T10:04:50.607Z,18.63
2022-08-18T10:08:21.537Z,17.07
2022-08-18T10:11:59.399Z,16.47
2022-08-18T10:15:47.163Z,13.13
2022-08-18T10:19:13.099Z,12.37
2022-08-18T10:22:41.847Z,13.47
2022-08-18T10:25:47.604Z,18.60
2022-08-18T10:29:00.558Z,15.87
2022-08-18T10:32:44.305Z,16.80
2022-08-18T10:36:03.047Z,18.70
2022-08-18T10:39:11.517Z,18.77
2022-08-18T10:42:28.637Z,16.13
2022-08-18T10:45:39.114Z,16.17
2022-08-18T10:48:42.907Z,19.23
2022-08-18T10:52:16.156Z,17.93
2022-08-18T10:55:50.351Z,12.87
2022-08-18T11:06:45.212Z,12.03
2022-08-18T11:10:04.423Z,13.13
2022-08-18T11:13:24.469Z,8.13
2022-08-18T11:16:55.999Z,11.13
2022-08-18T11:20:03.973Z,8.37
2022-08-18T11:23:15.866Z,10.73
2022-08-18T11:26:20.031Z,8.00
2022-08-18T11:29:34.206Z,7.00
2022-08-18T11:32:51.362Z,8.13
2022-08-18T11:36:01.445Z,7.43
2022-08-18T11:39:10.762Z,7.67
2022-08-18T11:45:58.195Z,8.50
2022-08-18T11:49:16.475Z,9.20
2022-08-18T11:52:34.432Z,9.10
2022-08-18T11:55:39.316Z,9.20
2022-08-18T11:58:56.797Z,6.93
2022-08-18T12:02:00.957Z,7.77
2022-08-18T12:05:08.467Z,6.70
2022-08-18T12:08:54.638Z,7.83
2022-08-18T12:11:56.528Z,6.60
2022-08-18T12:15:23.827Z,9.00
2022-08-18T12:18:29.739Z,7.53
2022-08-18T12:21:34.424Z,10.90
2022-08-18T12:24:41.524Z,9.87
2022-08-18T12:27:45.608Z,8.50
2022-08-18T12:30:56.150Z,7.67
2022-08-18T12:34:01.021Z,8.17
2022-08-18T12:37:14.303Z,9.70
2022-08-18T12:40:31.046Z,10.23
2022-08-18T12:43:36.872Z,11.20
2022-08-18T12:46:43.029Z,7.13
2022-08-18T12:49:46.956Z,8.97
2022-08-18T12:52:54.752Z,8.47
2022-08-18T12:56:01.783Z,7.70
2022-08-18T12:59:09.544Z,9.90
2022-08-18T13:02:13.814Z,8.20
2022-08-18T13:05:26.190Z,9.33
2022-08-18T13:08:38.150Z,8.87
2022-08-18T13:11:53.534Z,8.67
2022-08-18T13:14:57.951Z,9.27
2022-08-18T13:18:02.928Z,8.20
2022-08-18T13:21:08.409Z,8.93
2022-08-18T13:24:13.902Z,11.57
2022-08-18T13:27:23.339Z,11.27
2022-08-18T13:30:31.512Z,6.83
2022-08-18T13:33:57.184Z,7.87
2022-08-18T13:36:59.933Z,7.07
2022-08-18T13:40:04.392Z,8.23
2022-08-18T13:43:13.317Z,7.77
2022-08-18T13:46:29.995Z,5.83
2022-08-18T13:49:35.250Z,8.20
2022-08-18T13:52:44.625Z,7.27
2022-08-18T13:55:49.756Z,7.27
2022-08-18T13:58:54.750Z,8.37
2022-08-18T14:01:58.983Z,7.30
2022-08-18T14:05:04.694Z,8.50
2022-08-18T14:08:09.929Z,10.67
2022-08-18T14:11:14.070Z,7.97
2022-08-18T14:14:20.114Z,7.17
2022-08-18T14:17:26.308Z,10.40
2022-08-18T14:20:48.101Z,9.50
2022-08-18T14:24:10.718Z,12.83
2022-08-18T14:27:19.287Z,9.97
2022-08-18T14:30:25.878Z,16.33
2022-08-18T14:33:51.166Z,13.33
2022-08-18T14:36:55.934Z,13.10
2022-08-18T14:40:01.011Z,14.03
2022-08-18T14:43:07.990Z,12.40
2022-08-18T14:46:14.201Z,11.33
2022-08-18T14:49:28.544Z,7.93
2022-08-18T14:52:33.316Z,8.30
2022-08-18T14:55:38.083Z,15.20
2022-08-18T14:58:42.278Z,11.03
2022-08-18T15:01:47.318Z,8.90
2022-08-18T15:04:53.044Z,6.70
2022-08-18T15:08:03.797Z,8.20
2022-08-18T15:11:11.602Z,8.90
2022-08-18T15:14:17.666Z,8.23
2022-08-18T15:17:24.606Z,9.00
2022-08-18T15:20:29.994Z,10.60
2022-08-18T15:23:53.243Z,10.53
2022-08-18T15:27:05.699Z,8.40
2022-08-18T15:30:19.494Z,9.03
2022-08-18T15:33:30.052Z,14.33
2022-08-18T15:36:36.249Z,14.53
2022-08-18T15:39:40.070Z,10.47
2022-08-18T15:42:49.935Z,7.23
2022-08-18T15:45:57.807Z,9.17
2022-08-18T15:49:06.015Z,9.80
2022-08-18T15:52:13.635Z,11.40
2022-08-18T15:55:24.262Z,8.60
2022-08-18T15:58:28.585Z,8.13
2022-08-18T16:01:33.183Z,8.43
2022-08-18T16:04:39.489Z,8.13
2022-08-18T16:07:47.680Z,8.90
2022-08-18T16:10:52.931Z,9.90
2022-08-18T16:13:58.749Z,9.97
2022-08-18T16:17:09.119Z,9.43
2022-08-18T16:20:19.754Z,8.13
2022-08-18T16:23:23.415Z,11.10
2022-08-18T16:26:27.288Z,8.67
2022-08-18T16:29:30.879Z,10.00
2022-08-18T16:32:34.594Z,8.07
2022-08-18T16:35:39.957Z,10.83
2022-08-18T16:38:49.053Z,9.33
2022-08-18T16:41:57.678Z,8.17
2022-08-18T16:45:01.563Z,11.33
2022-08-18T16:48:08.260Z,10.37
2022-08-18T16:51:17.445Z,7.80
2022-08-18T16:54:21.210Z,10.70
2022-08-18T16:57:53.293Z,10.07
2022-08-18T17:01:18.838Z,9.40
2022-08-18T17:04:27.778Z,12.53
2022-08-18T17:07:36.422Z,9.83
2022-08-18T17:10:43.087Z,7.63
2022-08-18T17:13:50.002Z,8.77
2022-08-18T17:16:55.873Z,7.83
2022-08-18T17:19:59.554Z,9.13
2022-08-18T17:23:04.770Z,8.90
2022-08-18T17:26:16.597Z,8.20
2022-08-18T17:29:28.446Z,6.87
2022-08-18T17:32:41.821Z,7.43
2022-08-18T17:35:48.593Z,7.30
2022-08-18T17:39:00.134Z,8.10
2022-08-18T17:42:23.005Z,8.80
2022-08-18T17:45:41.169Z,7.13
2022-08-18T17:48:52.542Z,6.37
2022-08-18T17:51:57.559Z,6.17
2022-08-18T17:55:16.283Z,8.00
2022-08-18T17:58:34.035Z,6.50
2022-08-18T18:01:38.328Z,5.97
2022-08-18T18:04:43.614Z,9.30
2022-08-18T18:08:00.846Z,5.83
2022-08-18T18:11:13.062Z,9.47
2022-08-18T18:14:29.185Z,5.83
2022-08-18T18:17:37.896Z,7.17
2022-08-18T18:20:43.791Z,7.77
2022-08-18T18:23:52.625Z,6.87
2022-08-18T18:26:59.467Z,6.73
2022-08-18T18:30:09.025Z,7.10
2022-08-18T18:33:18.477Z,6.37
2022-08-18T18:36:40.362Z,8.07
2022-08-18T18:39:58.241Z,9.17
2022-08-18T18:43:24.444Z,9.93
2022-08-18T18:46:34.086Z,8.70
2022-08-18T18:49:51.749Z,8.93
2022-08-18T18:53:21.466Z,10.07
2022-08-18T18:56:31.921Z,9.80
2022-08-18T19:03:11.787Z,6.13
2022-08-18T19:06:29.505Z,7.13
2022-08-18T19:09:48.521Z,6.93
2022-08-18T19:13:00.853Z,6.97
2022-08-18T19:16:23.544Z,4.70
2022-08-18T19:19:39.365Z,6.53
2022-08-18T19:22:51.288Z,8.67
2022-08-18T19:25:59.427Z,7.43
2022-08-18T19:29:13.992Z,7.13
2022-08-18T19:32:27.647Z,7.73
2022-08-18T19:35:42.869Z,5.07
2022-08-18T19:42:18.260Z,9.13
2022-08-18T19:45:34.323Z,7.33
2022-08-18T19:48:52.952Z,5.97
2022-08-18T19:52:45.359Z,6.77
2022-08-18T19:55:57.978Z,8.73
2022-08-18T19:59:35.143Z,7.57
2022-08-18T20:03:10.104Z,7.70
2022-08-18T20:06:48.469Z,6.83
2022-08-18T20:10:21.181Z,7.90
2022-08-18T20:13:35.339Z,7.00
2022-08-18T20:16:43.802Z,5.20
2022-08-18T20:20:12.815Z,9.17
2022-08-18T20:26:50.269Z,6.73
2022-08-18T20:30:31.457Z,7.97
2022-08-18T20:33:43.419Z,7.00
2022-08-18T20:36:49.936Z,6.87
2022-08-18T20:39:56.804Z,6.23
2022-08-18T20:43:07.807Z,7.30
2022-08-18T20:46:33.726Z,7.33
2022-08-18T20:49:58.419Z,5.70
2022-08-18T20:53:16.545Z,5.53
2022-08-18T20:56:43.637Z,6.13
2022-08-18T21:00:02.269Z,10.07
2022-08-18T21:03:12.502Z,9.47
2022-08-18T21:06:17.118Z,7.73
2022-08-18T21:09:20.830Z,7.47
2022-08-18T21:12:28.665Z,11.33
2022-08-18T21:15:40.377Z,8.80
2022-08-18T21:18:53.853Z,10.13
2022-08-18T21:22:02.525Z,6.70
2022-08-18T21:25:13.715Z,7.47
2022-08-18T21:28:21.605Z,9.57
2022-08-18T21:31:43.230Z,8.40
2022-08-18T21:34:49.646Z,9.77
2022-08-18T21:38:05.677Z,8.70
2022-08-18T21:41:14.922Z,8.00
2022-08-18T21:44:23.806Z,6.77
2022-08-18T21:47:33.633Z,8.97
2022-08-18T21:50:38.809Z,8.63
2022-08-18T21:53:42.753Z,10.77
2022-08-18T21:56:46.707Z,8.03
2022-08-18T22:00:23.523Z,9.60
2022-08-18T22:03:29.737Z,8.77
2022-08-18T22:06:41.595Z,8.30
2022-08-18T22:10:19.062Z,10.47
2022-08-18T22:13:45.490Z,9.20
2022-08-18T22:16:49.498Z,10.70
2022-08-18T22:19:54.993Z,8.77
2022-08-18T22:23:32.687Z,8.17
2022-08-18T22:26:39.559Z,10.57
2022-08-18T22:29:50.893Z,9.43
2022-08-18T22:32:54.616Z,9.27
2022-08-18T22:36:02.971Z,12.13
2022-08-18T22:39:08.484Z,9.73
2022-08-18T22:42:13.663Z,10.73
2022-08-18T22:45:24.222Z,9.83
2022-08-18T22:48:28.427Z,10.17
2022-08-18T22:51:36.328Z,9.17
2022-08-18T22:54:40.074Z,8.90
2022-08-18T22:57:47.277Z,10.83
2022-08-18T23:00:51.698Z,8.90
2022-08-18T23:03:55.623Z,14.93
2022-08-18T23:07:00.839Z,9.37
2022-08-18T23:10:12.528Z,9.20
2022-08-18T23:13:17.787Z,10.10
2022-08-18T23:16:31.954Z,8.23
2022-08-18T23:19:36.192Z,9.97
2022-08-18T23:22:42.141Z,10.73
2022-08-18T23:25:46.011Z,10.47
2022-08-18T23:28:52.534Z,9.83
2022-08-18T23:31:57.153Z,9.77
2022-08-18T23:35:00.974Z,11.40
2022-08-18T23:38:07.986Z,9.97
2022-08-18T23:41:13.690Z,12.00
2022-08-18T23:44:17.333Z,10.33
2022-08-18T23:47:21.266Z,12.07
2022-08-18T23:50:25.201Z,10.23
2022-08-18T23:53:32.415Z,13.03
2022-08-18T23:56:38.638Z,11.30
2022-08-18T23:59:42.232Z,11.90
